sensor_id;sensor_type;location;lat;lon;timestamp;P1;durP1;ratioP1;P2;durP2;ratioP2
24147;SDS011;12309;51.450;-2.624;2023-03-05T00:01:05;28.73;;;14.20;;
24147;SDS011;12309;51.450;-2.624;2023-03-05T00:03:32;24.83;;;15.07;;
24147;SDS011;12309;51.450;-2.624;2023-03-05T00:05:58;28.43;;;15.20;;
24147;SDS011;12309;51.450;-2.624;2023-03-05T00:08:23;27.90;;;14.83;;
24147;SDS011;12309;51.450;-2.624;2023-03-05T00:10:59;26.80;;;14.47;;
24147;SDS011;12309;51.450;-2.624;2023-03-05T00:13:26;30.90;;;15.87;;
24147;SDS011;12309;51.450;-2.624;2023-03-05T00:15:52;33.57;;;15.77;;
24147;SDS011;12309;51.450;-2.624;2023-03-05T00:18:18;25.47;;;15.37;;
24147;SDS011;12309;51.450;-2.624;2023-03-05T00:20:44;29.27;;;16.30;;
24147;SDS011;12309;51.450;-2.624;2023-03-05T00:23:10;32.63;;;16.67;;
24147;SDS011;12309;51.450;-2.624;2023-03-05T00:25:36;30.47;;;16.60;;
24147;SDS011;12309;51.450;-2.624;2023-03-05T00:28:02;28.10;;;16.07;;
24147;SDS011;12309;51.450;-2.624;2023-03-05T00:30:28;28.90;;;15.70;;
24147;SDS011;12309;51.450;-2.624;2023-03-05T00:32:54;28.40;;;16.40;;
24147;SDS011;12309;51.450;-2.624;2023-03-05T00:35:20;31.47;;;16.00;;
24147;SDS011;12309;51.450;-2.624;2023-03-05T00:37:45;33.23;;;16.60;;
24147;SDS011;12309;51.450;-2.624;2023-03-05T00:40:11;31.10;;;16.37;;
24147;SDS011;12309;51.450;-2.624;2023-03-05T00:42:37;29.27;;;16.67;;
24147;SDS011;12309;51.450;-2.624;2023-03-05T00:45:06;34.20;;;17.20;;
24147;SDS011;12309;51.450;-2.624;2023-03-05T00:47:33;31.57;;;16.93;;
24147;SDS011;12309;51.450;-2.624;2023-03-05T00:49:59;29.57;;;17.23;;
24147;SDS011;12309;51.450;-2.624;2023-03-05T00:52:25;34.30;;;16.73;;
24147;SDS011;12309;51.450;-2.624;2023-03-05T00:54:50;35.20;;;17.63;;
24147;SDS011;12309;51.450;-2.624;2023-03-05T00:57:16;34.30;;;18.10;;
24147;SDS011;12309;51.450;-2.624;2023-03-05T00:59:41;34.80;;;17.73;;
24147;SDS011;12309;51.450;-2.624;2023-03-05T01:02:07;35.90;;;18.13;;
24147;SDS011;12309;51.450;-2.624;2023-03-05T01:04:33;34.30;;;17.37;;
24147;SDS011;12309;51.450;-2.624;2023-03-05T01:06:59;31.50;;;17.53;;
24147;SDS011;12309;51.450;-2.624;2023-03-05T01:09:24;37.00;;;19.13;;
24147;SDS011;12309;51.450;-2.624;2023-03-05T01:11:50;29.93;;;17.53;;
24147;SDS011;12309;51.450;-2.624;2023-03-05T01:14:16;33.27;;;18.27;;
24147;SDS011;12309;51.450;-2.624;2023-03-05T01:16:43;33.40;;;17.63;;
24147;SDS011;12309;51.450;-2.624;2023-03-05T01:19:09;34.30;;;19.33;;
24147;SDS011;12309;51.450;-2.624;2023-03-05T01:21:35;35.40;;;18.87;;
24147;SDS011;12309;51.450;-2.624;2023-03-05T01:24:01;35.07;;;18.90;;
24147;SDS011;12309;51.450;-2.624;2023-03-05T01:26:27;37.83;;;20.37;;
24147;SDS011;12309;51.450;-2.624;2023-03-05T01:28:53;38.50;;;20.00;;
24147;SDS011;12309;51.450;-2.624;2023-03-05T01:31:19;35.13;;;20.30;;
24147;SDS011;12309;51.450;-2.624;2023-03-05T01:33:44;33.23;;;19.00;;
24147;SDS011;12309;51.450;-2.624;2023-03-05T01:36:11;37.33;;;19.50;;
24147;SDS011;12309;51.450;-2.624;2023-03-05T01:38:44;35.47;;;19.60;;
24147;SDS011;12309;51.450;-2.624;2023-03-05T01:41:12;33.60;;;18.97;;
24147;SDS011;12309;51.450;-2.624;2023-03-05T01:43:39;36.83;;;19.33;;
24147;SDS011;12309;51.450;-2.624;2023-03-05T01:48:40;35.07;;;19.43;;
24147;SDS011;12309;51.450;-2.624;2023-03-05T01:51:08;34.67;;;19.93;;
24147;SDS011;12309;51.450;-2.624;2023-03-05T01:53:33;36.87;;;19.03;;
24147;SDS011;12309;51.450;-2.624;2023-03-05T01:56:00;33.57;;;19.63;;
24147;SDS011;12309;51.450;-2.624;2023-03-05T01:58:25;37.43;;;20.43;;
24147;SDS011;12309;51.450;-2.624;2023-03-05T02:00:52;34.07;;;19.67;;
24147;SDS011;12309;51.450;-2.624;2023-03-05T02:03:19;37.07;;;19.47;;
24147;SDS011;12309;51.450;-2.624;2023-03-05T02:05:48;40.17;;;19.67;;
24147;SDS011;12309;51.450;-2.624;2023-03-05T02:08:14;36.70;;;20.23;;
24147;SDS011;12309;51.450;-2.624;2023-03-05T02:10:45;37.83;;;20.33;;
24147;SDS011;12309;51.450;-2.624;2023-03-05T02:13:21;37.30;;;18.60;;
24147;SDS011;12309;51.450;-2.624;2023-03-05T02:15:49;35.03;;;19.03;;
24147;SDS011;12309;51.450;-2.624;2023-03-05T02:18:17;34.50;;;19.20;;
24147;SDS011;12309;51.450;-2.624;2023-03-05T02:23:22;36.30;;;19.07;;
24147;SDS011;12309;51.450;-2.624;2023-03-05T02:25:50;35.17;;;18.60;;
24147;SDS011;12309;51.450;-2.624;2023-03-05T02:31:09;34.07;;;18.03;;
24147;SDS011;12309;51.450;-2.624;2023-03-05T02:33:38;33.03;;;18.97;;
24147;SDS011;12309;51.450;-2.624;2023-03-05T02:36:04;35.07;;;18.90;;
24147;SDS011;12309;51.450;-2.624;2023-03-05T02:38:30;32.27;;;18.17;;
24147;SDS011;12309;51.450;-2.624;2023-03-05T02:40:56;38.90;;;18.33;;
24147;SDS011;12309;51.450;-2.624;2023-03-05T02:43:22;34.87;;;18.17;;
24147;SDS011;12309;51.450;-2.624;2023-03-05T02:45:47;29.53;;;16.63;;
24147;SDS011;12309;51.450;-2.624;2023-03-05T02:48:13;30.17;;;16.77;;
24147;SDS011;12309;51.450;-2.624;2023-03-05T02:50:39;27.70;;;16.67;;
24147;SDS011;12309;51.450;-2.624;2023-03-05T02:53:05;28.97;;;17.03;;
24147;SDS011;12309;51.450;-2.624;2023-03-05T02:55:31;34.70;;;17.77;;
24147;SDS011;12309;51.450;-2.624;2023-03-05T02:57:57;31.53;;;17.13;;
24147;SDS011;12309;51.450;-2.624;2023-03-05T03:00:22;32.07;;;16.73;;
24147;SDS011;12309;51.450;-2.624;2023-03-05T03:02:48;29.03;;;15.13;;
24147;SDS011;12309;51.450;-2.624;2023-03-05T03:05:14;31.73;;;16.67;;
24147;SDS011;12309;51.450;-2.624;2023-03-05T03:07:40;30.70;;;15.17;;
24147;SDS011;12309;51.450;-2.624;2023-03-05T03:10:06;25.80;;;15.20;;
24147;SDS011;12309;51.450;-2.624;2023-03-05T03:12:35;27.83;;;14.70;;
24147;SDS011;12309;51.450;-2.624;2023-03-05T03:15:06;28.53;;;15.57;;
24147;SDS011;12309;51.450;-2.624;2023-03-05T03:17:33;30.50;;;15.00;;
24147;SDS011;12309;51.450;-2.624;2023-03-05T03:20:00;31.90;;;16.93;;
24147;SDS011;12309;51.450;-2.624;2023-03-05T03:22:28;31.63;;;15.93;;
24147;SDS011;12309;51.450;-2.624;2023-03-05T03:24:54;33.53;;;16.90;;
24147;SDS011;12309;51.450;-2.624;2023-03-05T03:27:20;30.30;;;16.83;;
24147;SDS011;12309;51.450;-2.624;2023-03-05T03:29:46;37.10;;;16.67;;
24147;SDS011;12309;51.450;-2.624;2023-03-05T03:32:11;27.10;;;16.23;;
24147;SDS011;12309;51.450;-2.624;2023-03-05T03:34:37;29.57;;;15.60;;
24147;SDS011;12309;51.450;-2.624;2023-03-05T03:37:03;29.67;;;14.40;;
24147;SDS011;12309;51.450;-2.624;2023-03-05T03:39:28;29.63;;;15.23;;
24147;SDS011;12309;51.450;-2.624;2023-03-05T03:41:54;27.90;;;14.57;;
24147;SDS011;12309;51.450;-2.624;2023-03-05T03:44:20;27.10;;;14.70;;
24147;SDS011;12309;51.450;-2.624;2023-03-05T03:46:46;27.47;;;13.77;;
24147;SDS011;12309;51.450;-2.624;2023-03-05T03:49:14;26.23;;;13.10;;
24147;SDS011;12309;51.450;-2.624;2023-03-05T03:51:43;25.57;;;14.20;;
24147;SDS011;12309;51.450;-2.624;2023-03-05T03:54:08;25.30;;;13.40;;
24147;SDS011;12309;51.450;-2.624;2023-03-05T03:56:34;33.87;;;14.43;;
24147;SDS011;12309;51.450;-2.624;2023-03-05T03:59:00;25.47;;;14.20;;
24147;SDS011;12309;51.450;-2.624;2023-03-05T04:01:25;27.00;;;14.67;;
24147;SDS011;12309;51.450;-2.624;2023-03-05T04:03:51;24.07;;;12.70;;
24147;SDS011;12309;51.450;-2.624;2023-03-05T04:06:17;25.37;;;12.23;;
24147;SDS011;12309;51.450;-2.624;2023-03-05T04:08:43;22.07;;;11.57;;
24147;SDS011;12309;51.450;-2.624;2023-03-05T04:11:08;18.43;;;10.37;;
24147;SDS011;12309;51.450;-2.624;2023-03-05T04:13:34;19.87;;;10.90;;
24147;SDS011;12309;51.450;-2.624;2023-03-05T04:16:00;21.60;;;10.90;;
24147;SDS011;12309;51.450;-2.624;2023-03-05T04:18:25;21.47;;;9.73;;
24147;SDS011;12309;51.450;-2.624;2023-03-05T04:20:51;16.63;;;8.93;;
24147;SDS011;12309;51.450;-2.624;2023-03-05T04:23:17;15.57;;;8.13;;
24147;SDS011;12309;51.450;-2.624;2023-03-05T04:25:43;17.10;;;8.83;;
24147;SDS011;12309;51.450;-2.624;2023-03-05T04:28:08;13.83;;;8.07;;
24147;SDS011;12309;51.450;-2.624;2023-03-05T04:30:34;17.20;;;6.90;;
24147;SDS011;12309;51.450;-2.624;2023-03-05T04:33:00;14.90;;;6.53;;
24147;SDS011;12309;51.450;-2.624;2023-03-05T04:35:25;12.63;;;6.73;;
24147;SDS011;12309;51.450;-2.624;2023-03-05T04:37:51;15.37;;;6.77;;
24147;SDS011;12309;51.450;-2.624;2023-03-05T04:40:17;12.63;;;6.17;;
24147;SDS011;12309;51.450;-2.624;2023-03-05T04:42:43;11.03;;;6.00;;
24147;SDS011;12309;51.450;-2.624;2023-03-05T04:45:09;11.23;;;5.40;;
24147;SDS011;12309;51.450;-2.624;2023-03-05T04:47:36;10.80;;;5.53;;
24147;SDS011;12309;51.450;-2.624;2023-03-05T04:50:02;11.27;;;5.50;;
24147;SDS011;12309;51.450;-2.624;2023-03-05T04:52:29;12.30;;;6.03;;
24147;SDS011;12309;51.450;-2.624;2023-03-05T04:54:55;13.60;;;5.30;;
24147;SDS011;12309;51.450;-2.624;2023-03-05T04:57:20;9.43;;;5.07;;
24147;SDS011;12309;51.450;-2.624;2023-03-05T04:59:46;12.33;;;5.70;;
24147;SDS011;12309;51.450;-2.624;2023-03-05T05:02:12;12.37;;;5.50;;
24147;SDS011;12309;51.450;-2.624;2023-03-05T05:04:38;11.27;;;5.57;;
24147;SDS011;12309;51.450;-2.624;2023-03-05T05:07:04;13.17;;;5.67;;
24147;SDS011;12309;51.450;-2.624;2023-03-05T05:09:31;8.50;;;4.87;;
24147;SDS011;12309;51.450;-2.624;2023-03-05T05:11:57;8.17;;;4.60;;
24147;SDS011;12309;51.450;-2.624;2023-03-05T05:14:23;8.80;;;4.77;;
24147;SDS011;12309;51.450;-2.624;2023-03-05T05:16:49;10.17;;;4.00;;
24147;SDS011;12309;51.450;-2.624;2023-03-05T05:19:15;11.07;;;4.47;;
24147;SDS011;12309;51.450;-2.624;2023-03-05T05:21:40;7.30;;;3.87;;
24147;SDS011;12309;51.450;-2.624;2023-03-05T05:24:06;6.00;;;3.47;;
24147;SDS011;12309;51.450;-2.624;2023-03-05T05:26:32;9.53;;;3.83;;
24147;SDS011;12309;51.450;-2.624;2023-03-05T05:28:57;6.43;;;3.43;;
24147;SDS011;12309;51.450;-2.624;2023-03-05T05:31:23;6.40;;;3.43;;
24147;SDS011;12309;51.450;-2.624;2023-03-05T05:33:49;5.10;;;3.00;;
24147;SDS011;12309;51.450;-2.624;2023-03-05T05:36:15;8.87;;;3.60;;
24147;SDS011;12309;51.450;-2.624;2023-03-05T05:38:43;7.13;;;3.07;;
24147;SDS011;12309;51.450;-2.624;2023-03-05T05:41:13;5.97;;;3.30;;
24147;SDS011;12309;51.450;-2.624;2023-03-05T05:43:40;9.33;;;3.90;;
24147;SDS011;12309;51.450;-2.624;2023-03-05T05:46:07;7.37;;;3.63;;
24147;SDS011;12309;51.450;-2.624;2023-03-05T05:48:36;7.23;;;3.47;;
24147;SDS011;12309;51.450;-2.624;2023-03-05T05:51:05;9.50;;;3.40;;
24147;SDS011;12309;51.450;-2.624;2023-03-05T05:53:36;7.47;;;3.17;;
24147;SDS011;12309;51.450;-2.624;2023-03-05T05:56:03;6.50;;;3.03;;
24147;SDS011;12309;51.450;-2.624;2023-03-05T05:58:30;8.30;;;3.50;;
24147;SDS011;12309;51.450;-2.624;2023-03-05T06:00:55;7.03;;;3.20;;
24147;SDS011;12309;51.450;-2.624;2023-03-05T06:03:21;8.13;;;3.10;;
24147;SDS011;12309;51.450;-2.624;2023-03-05T06:05:47;9.10;;;3.80;;
24147;SDS011;12309;51.450;-2.624;2023-03-05T06:08:13;6.33;;;3.00;;
24147;SDS011;12309;51.450;-2.624;2023-03-05T06:10:39;6.57;;;3.20;;
24147;SDS011;12309;51.450;-2.624;2023-03-05T06:13:04;11.67;;;3.23;;
24147;SDS011;12309;51.450;-2.624;2023-03-05T06:15:30;7.13;;;3.30;;
24147;SDS011;12309;51.450;-2.624;2023-03-05T06:17:57;8.50;;;3.00;;
24147;SDS011;12309;51.450;-2.624;2023-03-05T06:20:24;8.87;;;3.17;;
24147;SDS011;12309;51.450;-2.624;2023-03-05T06:22:50;7.13;;;3.20;;
24147;SDS011;12309;51.450;-2.624;2023-03-05T06:25:15;7.93;;;3.13;;
24147;SDS011;12309;51.450;-2.624;2023-03-05T06:27:41;7.43;;;3.30;;
24147;SDS011;12309;51.450;-2.624;2023-03-05T06:30:07;7.53;;;3.20;;
24147;SDS011;12309;51.450;-2.624;2023-03-05T06:32:34;8.17;;;3.00;;
24147;SDS011;12309;51.450;-2.624;2023-03-05T06:34:59;5.83;;;2.67;;
24147;SDS011;12309;51.450;-2.624;2023-03-05T06:37:25;8.87;;;3.10;;
24147;SDS011;12309;51.450;-2.624;2023-03-05T06:39:51;5.37;;;2.90;;
24147;SDS011;12309;51.450;-2.624;2023-03-05T06:42:16;5.07;;;2.70;;
24147;SDS011;12309;51.450;-2.624;2023-03-05T06:44:43;6.50;;;2.70;;
24147;SDS011;12309;51.450;-2.624;2023-03-05T06:47:09;5.77;;;2.57;;
24147;SDS011;12309;51.450;-2.624;2023-03-05T06:49:35;6.87;;;2.67;;
24147;SDS011;12309;51.450;-2.624;2023-03-05T06:52:02;11.50;;;2.80;;
24147;SDS011;12309;51.450;-2.624;2023-03-05T06:54:28;5.03;;;2.43;;
24147;SDS011;12309;51.450;-2.624;2023-03-05T06:56:53;9.53;;;2.67;;
24147;SDS011;12309;51.450;-2.624;2023-03-05T06:59:19;7.60;;;3.03;;
24147;SDS011;12309;51.450;-2.624;2023-03-05T07:01:46;10.13;;;3.00;;
24147;SDS011;12309;51.450;-2.624;2023-03-05T07:04:12;10.67;;;2.90;;
24147;SDS011;12309;51.450;-2.624;2023-03-05T07:06:39;5.20;;;2.63;;
24147;SDS011;12309;51.450;-2.624;2023-03-05T07:09:14;7.00;;;2.50;;
24147;SDS011;12309;51.450;-2.624;2023-03-05T07:11:41;7.30;;;2.70;;
24147;SDS011;12309;51.450;-2.624;2023-03-05T07:14:06;5.67;;;2.77;;
24147;SDS011;12309;51.450;-2.624;2023-03-05T07:16:32;7.23;;;2.60;;
24147;SDS011;12309;51.450;-2.624;2023-03-05T07:18:59;5.07;;;2.83;;
24147;SDS011;12309;51.450;-2.624;2023-03-05T07:21:30;8.93;;;3.00;;
24147;SDS011;12309;51.450;-2.624;2023-03-05T07:23:58;4.90;;;2.60;;
24147;SDS011;12309;51.450;-2.624;2023-03-05T07:26:25;7.33;;;3.70;;
24147;SDS011;12309;51.450;-2.624;2023-03-05T07:28:51;8.80;;;2.90;;
24147;SDS011;12309;51.450;-2.624;2023-03-05T07:31:18;5.30;;;2.90;;
24147;SDS011;12309;51.450;-2.624;2023-03-05T07:33:46;10.87;;;3.60;;
24147;SDS011;12309;51.450;-2.624;2023-03-05T07:36:13;5.60;;;2.93;;
24147;SDS011;12309;51.450;-2.624;2023-03-05T07:38:40;8.43;;;2.97;;
24147;SDS011;12309;51.450;-2.624;2023-03-05T07:41:07;6.33;;;2.83;;
24147;SDS011;12309;51.450;-2.624;2023-03-05T07:43:35;6.50;;;2.93;;
24147;SDS011;12309;51.450;-2.624;2023-03-05T07:46:05;6.53;;;3.13;;
24147;SDS011;12309;51.450;-2.624;2023-03-05T07:48:32;9.93;;;3.43;;
24147;SDS011;12309;51.450;-2.624;2023-03-05T07:50:59;7.67;;;2.87;;
24147;SDS011;12309;51.450;-2.624;2023-03-05T07:53:29;4.73;;;2.90;;
24147;SDS011;12309;51.450;-2.624;2023-03-05T07:55:54;5.37;;;3.00;;
24147;SDS011;12309;51.450;-2.624;2023-03-05T07:58:20;8.33;;;3.33;;
24147;SDS011;12309;51.450;-2.624;2023-03-05T08:00:46;9.50;;;3.33;;
24147;SDS011;12309;51.450;-2.624;2023-03-05T08:03:11;6.63;;;3.03;;
24147;SDS011;12309;51.450;-2.624;2023-03-05T08:05:38;4.70;;;3.13;;
24147;SDS011;12309;51.450;-2.624;2023-03-05T08:08:04;7.13;;;3.50;;
24147;SDS011;12309;51.450;-2.624;2023-03-05T08:10:30;11.00;;;3.07;;
24147;SDS011;12309;51.450;-2.624;2023-03-05T08:12:55;6.33;;;3.10;;
24147;SDS011;12309;51.450;-2.624;2023-03-05T08:15:21;8.37;;;3.53;;
24147;SDS011;12309;51.450;-2.624;2023-03-05T08:17:47;7.37;;;3.10;;
24147;SDS011;12309;51.450;-2.624;2023-03-05T08:20:12;9.23;;;3.50;;
24147;SDS011;12309;51.450;-2.624;2023-03-05T08:22:38;7.43;;;3.23;;
24147;SDS011;12309;51.450;-2.624;2023-03-05T08:25:04;8.50;;;3.13;;
24147;SDS011;12309;51.450;-2.624;2023-03-05T08:27:31;7.57;;;2.93;;
24147;SDS011;12309;51.450;-2.624;2023-03-05T08:29:57;7.17;;;3.40;;
24147;SDS011;12309;51.450;-2.624;2023-03-05T08:32:22;8.30;;;3.23;;
24147;SDS011;12309;51.450;-2.624;2023-03-05T08:34:48;8.30;;;3.20;;
24147;SDS011;12309;51.450;-2.624;2023-03-05T08:37:14;7.00;;;3.07;;
24147;SDS011;12309;51.450;-2.624;2023-03-05T08:39:39;5.80;;;3.33;;
24147;SDS011;12309;51.450;-2.624;2023-03-05T08:42:05;9.93;;;3.53;;
24147;SDS011;12309;51.450;-2.624;2023-03-05T08:44:31;5.93;;;2.80;;
24147;SDS011;12309;51.450;-2.624;2023-03-05T08:46:56;9.30;;;3.53;;
24147;SDS011;12309;51.450;-2.624;2023-03-05T08:49:22;13.40;;;3.30;;
24147;SDS011;12309;51.450;-2.624;2023-03-05T08:51:48;6.47;;;2.93;;
24147;SDS011;12309;51.450;-2.624;2023-03-05T08:54:13;8.30;;;3.10;;
24147;SDS011;12309;51.450;-2.624;2023-03-05T08:56:39;9.50;;;3.73;;
24147;SDS011;12309;51.450;-2.624;2023-03-05T08:59:05;6.23;;;3.13;;
24147;SDS011;12309;51.450;-2.624;2023-03-05T09:01:30;7.27;;;3.20;;
24147;SDS011;12309;51.450;-2.624;2023-03-05T09:03:59;6.90;;;3.30;;
24147;SDS011;12309;51.450;-2.624;2023-03-05T09:06:26;10.73;;;3.40;;
24147;SDS011;12309;51.450;-2.624;2023-03-05T09:08:52;9.73;;;3.63;;
24147;SDS011;12309;51.450;-2.624;2023-03-05T09:11:18;5.60;;;2.70;;
24147;SDS011;12309;51.450;-2.624;2023-03-05T09:13:44;5.77;;;2.33;;
24147;SDS011;12309;51.450;-2.624;2023-03-05T09:16:10;6.13;;;3.10;;
24147;SDS011;12309;51.450;-2.624;2023-03-05T09:18:38;6.30;;;3.20;;
24147;SDS011;12309;51.450;-2.624;2023-03-05T09:21:09;8.80;;;3.13;;
24147;SDS011;12309;51.450;-2.624;2023-03-05T09:23:37;6.00;;;3.37;;
24147;SDS011;12309;51.450;-2.624;2023-03-05T09:26:05;5.97;;;2.87;;
24147;SDS011;12309;51.450;-2.624;2023-03-05T09:28:31;7.50;;;2.90;;
24147;SDS011;12309;51.450;-2.624;2023-03-05T09:31:00;6.23;;;2.63;;
24147;SDS011;12309;51.450;-2.624;2023-03-05T09:33:27;8.00;;;3.00;;
24147;SDS011;12309;51.450;-2.624;2023-03-05T09:35:52;8.40;;;3.00;;
24147;SDS011;12309;51.450;-2.624;2023-03-05T09:38:18;8.50;;;3.03;;
24147;SDS011;12309;51.450;-2.624;2023-03-05T09:40:54;7.37;;;3.00;;
24147;SDS011;12309;51.450;-2.624;2023-03-05T09:43:34;6.20;;;3.20;;
24147;SDS011;12309;51.450;-2.624;2023-03-05T09:46:12;6.57;;;3.10;;
24147;SDS011;12309;51.450;-2.624;2023-03-05T09:51:38;8.57;;;3.03;;
24147;SDS011;12309;51.450;-2.624;2023-03-05T09:54:11;8.67;;;3.33;;
24147;SDS011;12309;51.450;-2.624;2023-03-05T09:56:42;6.87;;;3.00;;
24147;SDS011;12309;51.450;-2.624;2023-03-05T10:01:52;10.17;;;3.47;;
24147;SDS011;12309;51.450;-2.624;2023-03-05T10:07:11;3.77;;;2.60;;
24147;SDS011;12309;51.450;-2.624;2023-03-05T10:09:47;9.60;;;3.00;;
24147;SDS011;12309;51.450;-2.624;2023-03-05T10:15:35;4.87;;;2.63;;
24147;SDS011;12309;51.450;-2.624;2023-03-05T10:18:19;7.07;;;3.47;;
24147;SDS011;12309;51.450;-2.624;2023-03-05T10:21:20;10.30;;;3.10;;
24147;SDS011;12309;51.450;-2.624;2023-03-05T10:29:21;5.00;;;3.10;;
24147;SDS011;12309;51.450;-2.624;2023-03-05T10:35:03;4.67;;;2.87;;
24147;SDS011;12309;51.450;-2.624;2023-03-05T10:37:47;8.23;;;3.13;;
24147;SDS011;12309;51.450;-2.624;2023-03-05T10:40:35;6.97;;;3.00;;
24147;SDS011;12309;51.450;-2.624;2023-03-05T10:46:16;8.40;;;2.63;;
24147;SDS011;12309;51.450;-2.624;2023-03-05T10:51:50;4.77;;;2.50;;
24147;SDS011;12309;51.450;-2.624;2023-03-05T10:54:23;4.93;;;2.63;;
24147;SDS011;12309;51.450;-2.624;2023-03-05T10:59:52;6.17;;;2.80;;
24147;SDS011;12309;51.450;-2.624;2023-03-05T11:02:21;4.73;;;2.60;;
24147;SDS011;12309;51.450;-2.624;2023-03-05T11:04:47;6.33;;;2.77;;
24147;SDS011;12309;51.450;-2.624;2023-03-05T11:09:40;5.10;;;2.90;;
24147;SDS011;12309;51.450;-2.624;2023-03-05T11:14:43;6.47;;;3.10;;
24147;SDS011;12309;51.450;-2.624;2023-03-05T11:17:30;8.53;;;2.83;;
24147;SDS011;12309;51.450;-2.624;2023-03-05T11:23:12;6.07;;;2.53;;
24147;SDS011;12309;51.450;-2.624;2023-03-05T11:26:00;5.37;;;3.07;;
24147;SDS011;12309;51.450;-2.624;2023-03-05T11:33:31;11.43;;;2.83;;
24147;SDS011;12309;51.450;-2.624;2023-03-05T11:38:44;4.40;;;2.60;;
24147;SDS011;12309;51.450;-2.624;2023-03-05T11:41:28;6.07;;;3.20;;
24147;SDS011;12309;51.450;-2.624;2023-03-05T11:43:58;9.60;;;2.90;;
24147;SDS011;12309;51.450;-2.624;2023-03-05T11:46:27;5.23;;;2.50;;
24147;SDS011;12309;51.450;-2.624;2023-03-05T11:48:58;9.53;;;3.40;;
24147;SDS011;12309;51.450;-2.624;2023-03-05T11:51:25;9.00;;;3.17;;
24147;SDS011;12309;51.450;-2.624;2023-03-05T11:53:59;8.93;;;3.03;;
24147;SDS011;12309;51.450;-2.624;2023-03-05T11:56:37;7.73;;;2.90;;
24147;SDS011;12309;51.450;-2.624;2023-03-05T11:59:13;6.13;;;2.47;;
24147;SDS011;12309;51.450;-2.624;2023-03-05T12:01:48;13.70;;;3.23;;
24147;SDS011;12309;51.450;-2.624;2023-03-05T12:04:17;15.87;;;3.07;;
24147;SDS011;12309;51.450;-2.624;2023-03-05T12:06:51;8.83;;;2.80;;
24147;SDS011;12309;51.450;-2.624;2023-03-05T12:12:07;9.47;;;2.73;;
24147;SDS011;12309;51.450;-2.624;2023-03-05T12:14:44;9.13;;;2.90;;
24147;SDS011;12309;51.450;-2.624;2023-03-05T12:19:49;8.77;;;2.90;;
24147;SDS011;12309;51.450;-2.624;2023-03-05T12:22:36;7.63;;;3.30;;
24147;SDS011;12309;51.450;-2.624;2023-03-05T12:25:15;11.73;;;2.90;;
24147;SDS011;12309;51.450;-2.624;2023-03-05T12:27:52;7.70;;;2.73;;
24147;SDS011;12309;51.450;-2.624;2023-03-05T12:33:31;11.03;;;3.20;;
24147;SDS011;12309;51.450;-2.624;2023-03-05T12:38:47;6.17;;;2.60;;
24147;SDS011;12309;51.450;-2.624;2023-03-05T12:46:32;7.93;;;2.73;;
24147;SDS011;12309;51.450;-2.624;2023-03-05T12:51:45;9.87;;;2.87;;
24147;SDS011;12309;51.450;-2.624;2023-03-05T12:54:26;8.37;;;2.90;;
24147;SDS011;12309;51.450;-2.624;2023-03-05T12:56:54;7.17;;;2.53;;
24147;SDS011;12309;51.450;-2.624;2023-03-05T12:59:22;5.53;;;2.57;;
24147;SDS011;12309;51.450;-2.624;2023-03-05T13:01:59;5.90;;;2.50;;
24147;SDS011;12309;51.450;-2.624;2023-03-05T13:04:28;9.10;;;2.67;;
24147;SDS011;12309;51.450;-2.624;2023-03-05T13:07:03;9.83;;;2.93;;
24147;SDS011;12309;51.450;-2.624;2023-03-05T13:09:31;8.93;;;2.60;;
24147;SDS011;12309;51.450;-2.624;2023-03-05T13:12:00;6.33;;;3.00;;
24147;SDS011;12309;51.450;-2.624;2023-03-05T13:14:33;8.40;;;3.30;;
24147;SDS011;12309;51.450;-2.624;2023-03-05T13:17:23;6.80;;;2.90;;
24147;SDS011;12309;51.450;-2.624;2023-03-05T13:19:56;6.97;;;3.43;;
24147;SDS011;12309;51.450;-2.624;2023-03-05T13:22:23;6.73;;;3.30;;
24147;SDS011;12309;51.450;-2.624;2023-03-05T13:25:03;15.03;;;4.50;;
24147;SDS011;12309;51.450;-2.624;2023-03-05T13:27:39;8.33;;;4.00;;
24147;SDS011;12309;51.450;-2.624;2023-03-05T13:30:18;10.60;;;3.80;;
24147;SDS011;12309;51.450;-2.624;2023-03-05T13:32:48;9.57;;;3.70;;
24147;SDS011;12309;51.450;-2.624;2023-03-05T13:35:16;10.07;;;4.53;;
24147;SDS011;12309;51.450;-2.624;2023-03-05T13:37:42;12.50;;;4.67;;
24147;SDS011;12309;51.450;-2.624;2023-03-05T13:42:44;11.57;;;4.43;;
24147;SDS011;12309;51.450;-2.624;2023-03-05T13:45:24;17.90;;;4.23;;
24147;SDS011;12309;51.450;-2.624;2023-03-05T13:47:58;10.17;;;4.57;;
24147;SDS011;12309;51.450;-2.624;2023-03-05T13:53:15;11.00;;;4.00;;
24147;SDS011;12309;51.450;-2.624;2023-03-05T13:55:47;9.43;;;4.00;;
24147;SDS011;12309;51.450;-2.624;2023-03-05T14:04:07;12.03;;;4.20;;
24147;SDS011;12309;51.450;-2.624;2023-03-05T14:07:03;8.73;;;3.57;;
24147;SDS011;12309;51.450;-2.624;2023-03-05T14:12:13;8.93;;;3.60;;
24147;SDS011;12309;51.450;-2.624;2023-03-05T14:14:59;6.67;;;3.00;;
24147;SDS011;12309;51.450;-2.624;2023-03-05T14:22:57;8.07;;;4.53;;
24147;SDS011;12309;51.450;-2.624;2023-03-05T14:25:29;6.77;;;3.53;;
24147;SDS011;12309;51.450;-2.624;2023-03-05T14:30:51;12.13;;;3.87;;
24147;SDS011;12309;51.450;-2.624;2023-03-05T14:33:22;14.63;;;4.10;;
24147;SDS011;12309;51.450;-2.624;2023-03-05T14:35:50;10.87;;;4.20;;
24147;SDS011;12309;51.450;-2.624;2023-03-05T14:38:18;7.53;;;3.37;;
24147;SDS011;12309;51.450;-2.624;2023-03-05T14:40:48;11.43;;;4.67;;
24147;SDS011;12309;51.450;-2.624;2023-03-05T14:43:14;9.40;;;4.80;;
24147;SDS011;12309;51.450;-2.624;2023-03-05T14:45:41;11.53;;;5.00;;
24147;SDS011;12309;51.450;-2.624;2023-03-05T14:48:12;12.63;;;4.50;;
24147;SDS011;12309;51.450;-2.624;2023-03-05T14:53:14;12.60;;;5.40;;
24147;SDS011;12309;51.450;-2.624;2023-03-05T14:55:41;12.10;;;5.10;;
24147;SDS011;12309;51.450;-2.624;2023-03-05T14:58:15;15.37;;;5.57;;
24147;SDS011;12309;51.450;-2.624;2023-03-05T15:00:44;14.80;;;5.83;;
24147;SDS011;12309;51.450;-2.624;2023-03-05T15:03:13;11.40;;;5.90;;
24147;SDS011;12309;51.450;-2.624;2023-03-05T15:05:41;14.43;;;5.90;;
24147;SDS011;12309;51.450;-2.624;2023-03-05T15:08:21;12.33;;;5.87;;
24147;SDS011;12309;51.450;-2.624;2023-03-05T15:10:53;12.80;;;6.27;;
24147;SDS011;12309;51.450;-2.624;2023-03-05T15:13:19;12.97;;;5.90;;
24147;SDS011;12309;51.450;-2.624;2023-03-05T15:15:44;12.77;;;5.80;;
24147;SDS011;12309;51.450;-2.624;2023-03-05T15:18:12;11.13;;;5.80;;
24147;SDS011;12309;51.450;-2.624;2023-03-05T15:20:38;15.50;;;5.90;;
24147;SDS011;12309;51.450;-2.624;2023-03-05T15:23:04;9.77;;;5.40;;
24147;SDS011;12309;51.450;-2.624;2023-03-05T15:25:30;13.70;;;5.70;;
24147;SDS011;12309;51.450;-2.624;2023-03-05T15:27:56;10.20;;;5.10;;
24147;SDS011;12309;51.450;-2.624;2023-03-05T15:30:23;9.80;;;5.53;;
24147;SDS011;12309;51.450;-2.624;2023-03-05T15:33:01;12.43;;;6.40;;
24147;SDS011;12309;51.450;-2.624;2023-03-05T15:35:29;10.27;;;5.63;;
24147;SDS011;12309;51.450;-2.624;2023-03-05T15:37:54;10.97;;;5.23;;
24147;SDS011;12309;51.450;-2.624;2023-03-05T15:40:21;10.77;;;5.57;;
24147;SDS011;12309;51.450;-2.624;2023-03-05T15:42:47;14.73;;;5.70;;
24147;SDS011;12309;51.450;-2.624;2023-03-05T15:45:13;12.80;;;5.97;;
24147;SDS011;12309;51.450;-2.624;2023-03-05T15:47:39;8.93;;;5.63;;
24147;SDS011;12309;51.450;-2.624;2023-03-05T15:50:05;12.60;;;5.57;;
24147;SDS011;12309;51.450;-2.624;2023-03-05T15:52:32;11.63;;;5.07;;
24147;SDS011;12309;51.450;-2.624;2023-03-05T15:55:01;12.20;;;6.00;;
24147;SDS011;12309;51.450;-2.624;2023-03-05T15:57:27;10.73;;;6.07;;
24147;SDS011;12309;51.450;-2.624;2023-03-05T15:59:53;11.33;;;5.90;;
24147;SDS011;12309;51.450;-2.624;2023-03-05T16:02:19;11.63;;;6.10;;
24147;SDS011;12309;51.450;-2.624;2023-03-05T16:04:45;14.77;;;6.60;;
24147;SDS011;12309;51.450;-2.624;2023-03-05T16:07:10;12.27;;;6.30;;